sensor_id;sensor_type;location;lat;lon;timestamp;pressure;altitude;pressure_sealevel;temperature;humidity
13705;BME280;6924;52.122;9.952;2023-06-19T00:00:41;100080.47;;;20.76;67.02
13705;BME280;6924;52.122;9.952;2023-06-19T00:03:07;100087.84;;;20.73;67.27
13705;BME280;6924;52.122;9.952;2023-06-19T00:05:34;100079.59;;;20.72;67.89
13705;BME280;6924;52.122;9.952;2023-06-19T00:08:00;100073.41;;;20.70;68.18
13705;BME280;6924;52.122;9.952;2023-06-19T00:10:30;100081.59;;;20.68;67.77
13705;BME280;6924;52.122;9.952;2023-06-19T00:12:56;100075.84;;;20.64;67.35
13705;BME280;6924;52.122;9.952;2023-06-19T00:15:22;100072.53;;;20.62;67.56
13705;BME280;6924;52.122;9.952;2023-06-19T00:17:49;100074.16;;;20.59;65.24
13705;BME280;6924;52.122;9.952;2023-06-19T00:20:15;100071.69;;;20.58;64.28
13705;BME280;6924;52.122;9.952;2023-06-19T00:22:43;100067.97;;;20.57;63.70
13705;BME280;6924;52.122;9.952;2023-06-19T00:25:09;100061.38;;;20.57;64.42
13705;BME280;6924;52.122;9.952;2023-06-19T00:27:37;100063.06;;;20.58;64.90
13705;BME280;6924;52.122;9.952;2023-06-19T00:30:05;100058.50;;;20.57;65.98
13705;BME280;6924;52.122;9.952;2023-06-19T00:32:33;100058.50;;;20.57;66.41
13705;BME280;6924;52.122;9.952;2023-06-19T00:35:12;100049.03;;;20.56;67.23
13705;BME280;6924;52.122;9.952;2023-06-19T00:37:38;100049.47;;;20.55;67.37
13705;BME280;6924;52.122;9.952;2023-06-19T00:40:07;100048.19;;;20.52;67.92
13705;BME280;6924;52.122;9.952;2023-06-19T00:42:38;100050.22;;;20.52;68.52
13705;BME280;6924;52.122;9.952;2023-06-19T00:45:05;100043.25;;;20.49;68.82
13705;BME280;6924;52.122;9.952;2023-06-19T00:47:33;100041.16;;;20.46;69.45
13705;BME280;6924;52.122;9.952;2023-06-19T00:50:00;100036.19;;;20.43;69.02
13705;BME280;6924;52.122;9.952;2023-06-19T00:52:26;100036.56;;;20.41;69.07
13705;BME280;6924;52.122;9.952;2023-06-19T00:54:53;100043.13;;;20.38;68.85
13705;BME280;6924;52.122;9.952;2023-06-19T00:57:20;100033.25;;;20.36;68.74
13705;BME280;6924;52.122;9.952;2023-06-19T00:59:47;100041.81;;;20.32;68.81
13705;BME280;6924;52.122;9.952;2023-06-19T01:02:15;100027.03;;;20.30;68.78
13705;BME280;6924;52.122;9.952;2023-06-19T01:04:41;100022.91;;;20.28;67.36
13705;BME280;6924;52.122;9.952;2023-06-19T01:07:09;100018.78;;;20.25;67.86
13705;BME280;6924;52.122;9.952;2023-06-19T01:09:43;100023.28;;;20.22;66.85
13705;BME280;6924;52.122;9.952;2023-06-19T01:12:16;100023.28;;;20.22;67.27
13705;BME280;6924;52.122;9.952;2023-06-19T01:14:49;100024.47;;;20.21;66.05
13705;BME280;6924;52.122;9.952;2023-06-19T01:19:43;100013.41;;;20.20;67.40
13705;BME280;6924;52.122;9.952;2023-06-19T01:22:22;100011.75;;;20.19;68.21
13705;BME280;6924;52.122;9.952;2023-06-19T01:24:48;100008.06;;;20.18;69.15
13705;BME280;6924;52.122;9.952;2023-06-19T01:27:15;100003.94;;;20.16;69.02
13705;BME280;6924;52.122;9.952;2023-06-19T01:29:41;100017.84;;;20.14;69.39
13705;BME280;6924;52.122;9.952;2023-06-19T01:32:10;100011.22;;;20.10;69.94
13705;BME280;6924;52.122;9.952;2023-06-19T01:34:39;100001.00;;;20.09;70.63
13705;BME280;6924;52.122;9.952;2023-06-19T01:37:06;99998.06;;;20.05;70.39
13705;BME280;6924;52.122;9.952;2023-06-19T01:39:36;100002.94;;;20.01;69.98
13705;BME280;6924;52.122;9.952;2023-06-19T01:42:04;100006.59;;;19.98;70.16
13705;BME280;6924;52.122;9.952;2023-06-19T01:44:31;100000.00;;;19.94;70.33
13705;BME280;6924;52.122;9.952;2023-06-19T01:46:58;100003.63;;;19.91;70.38
13705;BME280;6924;52.122;9.952;2023-06-19T01:49:25;100001.94;;;19.86;70.48
13705;BME280;6924;52.122;9.952;2023-06-19T01:51:51;100006.41;;;19.84;70.86
13705;BME280;6924;52.122;9.952;2023-06-19T01:54:18;100008.41;;;19.79;70.60
13705;BME280;6924;52.122;9.952;2023-06-19T01:56:45;100007.16;;;19.77;71.23
13705;BME280;6924;52.122;9.952;2023-06-19T01:59:12;100014.50;;;19.74;71.99
13705;BME280;6924;52.122;9.952;2023-06-19T02:01:38;100011.59;;;19.71;71.19
13705;BME280;6924;52.122;9.952;2023-06-19T02:04:05;100003.75;;;19.68;71.18
13705;BME280;6924;52.122;9.952;2023-06-19T02:06:31;100002.50;;;19.65;71.12
13705;BME280;6924;52.122;9.952;2023-06-19T02:08:57;100013.88;;;19.58;71.47
13705;BME280;6924;52.122;9.952;2023-06-19T02:11:24;100008.97;;;19.58;71.83
13705;BME280;6924;52.122;9.952;2023-06-19T02:13:51;100016.31;;;19.56;71.57
13705;BME280;6924;52.122;9.952;2023-06-19T02:16:18;100012.56;;;19.52;71.67
13705;BME280;6924;52.122;9.952;2023-06-19T02:18:44;100015.44;;;19.52;71.39
13705;BME280;6924;52.122;9.952;2023-06-19T02:21:11;100017.84;;;19.50;71.07
13705;BME280;6924;52.122;9.952;2023-06-19T02:23:37;100017.03;;;19.49;71.38
13705;BME280;6924;52.122;9.952;2023-06-19T02:26:04;100003.91;;;19.48;71.66
13705;BME280;6924;52.122;9.952;2023-06-19T02:28:30;100000.22;;;19.48;70.81
13705;BME280;6924;52.122;9.952;2023-06-19T02:30:58;100009.63;;;19.48;71.07
13705;BME280;6924;52.122;9.952;2023-06-19T02:33:24;99998.00;;;19.37;71.55
13705;BME280;6924;52.122;9.952;2023-06-19T02:35:51;99996.31;;;19.33;71.73
13705;BME280;6924;52.122;9.952;2023-06-19T02:38:17;99995.50;;;19.32;71.98
13705;BME280;6924;52.122;9.952;2023-06-19T02:40:46;99988.97;;;19.35;71.29
13705;BME280;6924;52.122;9.952;2023-06-19T02:43:12;99993.13;;;19.38;70.47
13705;BME280;6924;52.122;9.952;2023-06-19T02:45:39;99989.03;;;19.39;70.96
13705;BME280;6924;52.122;9.952;2023-06-19T02:48:07;99975.50;;;19.39;70.85
13705;BME280;6924;52.122;9.952;2023-06-19T02:50:33;99975.06;;;19.37;70.14
13705;BME280;6924;52.122;9.952;2023-06-19T02:52:59;99971.81;;;19.39;70.45
13705;BME280;6924;52.122;9.952;2023-06-19T02:55:26;99973.91;;;19.42;69.89
13705;BME280;6924;52.122;9.952;2023-06-19T02:57:52;99973.91;;;19.42;70.36
13705;BME280;6924;52.122;9.952;2023-06-19T03:00:19;99968.50;;;19.37;68.72
13705;BME280;6924;52.122;9.952;2023-06-19T03:02:46;99967.59;;;19.29;65.63
13705;BME280;6924;52.122;9.952;2023-06-19T03:05:15;99968.44;;;19.30;64.23
13705;BME280;6924;52.122;9.952;2023-06-19T03:07:41;99963.59;;;19.37;63.33
13705;BME280;6924;52.122;9.952;2023-06-19T03:10:08;99967.00;;;19.47;62.98
13705;BME280;6924;52.122;9.952;2023-06-19T03:12:35;99970.31;;;19.49;62.14
13705;BME280;6924;52.122;9.952;2023-06-19T03:15:02;99971.22;;;19.56;61.01
13705;BME280;6924;52.122;9.952;2023-06-19T03:17:28;99969.31;;;19.68;60.17
13705;BME280;6924;52.122;9.952;2023-06-19T03:19:54;99975.97;;;19.72;59.45
13705;BME280;6924;52.122;9.952;2023-06-19T03:22:23;99974.78;;;19.76;59.89
13705;BME280;6924;52.122;9.952;2023-06-19T03:24:49;99976.53;;;19.85;59.51
13705;BME280;6924;52.122;9.952;2023-06-19T03:27:17;99993.00;;;19.91;59.75
13705;BME280;6924;52.122;9.952;2023-06-19T03:29:43;99985.25;;;19.95;61.05
13705;BME280;6924;52.122;9.952;2023-06-19T03:32:10;99978.72;;;19.98;61.85
13705;BME280;6924;52.122;9.952;2023-06-19T03:34:36;99972.63;;;20.03;62.71
13705;BME280;6924;52.122;9.952;2023-06-19T03:37:03;99977.97;;;20.05;63.06
13705;BME280;6924;52.122;9.952;2023-06-19T03:39:31;99980.03;;;20.08;63.84
13705;BME280;6924;52.122;9.952;2023-06-19T03:41:57;99979.22;;;20.08;64.90
13705;BME280;6924;52.122;9.952;2023-06-19T03:44:23;99988.63;;;20.05;65.14
13705;BME280;6924;52.122;9.952;2023-06-19T03:46:50;99984.53;;;20.06;65.27
13705;BME280;6924;52.122;9.952;2023-06-19T03:49:16;99988.66;;;20.08;64.67
13705;BME280;6924;52.122;9.952;2023-06-19T03:51:43;99980.84;;;20.05;64.34
13705;BME280;6924;52.122;9.952;2023-06-19T03:54:09;99994.41;;;20.08;65.07
13705;BME280;6924;52.122;9.952;2023-06-19T03:56:37;99989.88;;;20.07;64.45
13705;BME280;6924;52.122;9.952;2023-06-19T03:59:04;99994.00;;;20.10;63.99
13705;BME280;6924;52.122;9.952;2023-06-19T04:01:30;99994.84;;;20.10;63.97
13705;BME280;6924;52.122;9.952;2023-06-19T04:03:56;99986.66;;;20.12;63.33
13705;BME280;6924;52.122;9.952;2023-06-19T04:06:24;99983.78;;;20.12;64.01
13705;BME280;6924;52.122;9.952;2023-06-19T04:08:51;99990.34;;;20.13;64.51
13705;BME280;6924;52.122;9.952;2023-06-19T04:11:17;99994.06;;;20.13;64.74
13705;BME280;6924;52.122;9.952;2023-06-19T04:13:45;99991.19;;;20.13;64.56
13705;BME280;6924;52.122;9.952;2023-06-19T04:16:12;99993.69;;;20.18;64.33
13705;BME280;6924;52.122;9.952;2023-06-19T04:18:38;100002.31;;;20.18;64.33
13705;BME280;6924;52.122;9.952;2023-06-19T04:21:05;99998.63;;;20.21;64.07
13705;BME280;6924;52.122;9.952;2023-06-19T04:23:32;99999.06;;;20.20;64.34
13705;BME280;6924;52.122;9.952;2023-06-19T04:25:59;100004.38;;;20.21;64.87
13705;BME280;6924;52.122;9.952;2023-06-19T04:28:25;99998.63;;;20.21;65.59
13705;BME280;6924;52.122;9.952;2023-06-19T04:30:53;99999.91;;;20.24;66.05
13705;BME280;6924;52.122;9.952;2023-06-19T04:33:25;99999.06;;;20.23;64.19
13705;BME280;6924;52.122;9.952;2023-06-19T04:35:51;100003.19;;;20.22;61.69
13705;BME280;6924;52.122;9.952;2023-06-19T04:38:17;100007.69;;;20.23;60.90
13705;BME280;6924;52.122;9.952;2023-06-19T04:40:48;100000.75;;;20.25;62.23
13705;BME280;6924;52.122;9.952;2023-06-19T04:43:15;100012.66;;;20.27;63.21
13705;BME280;6924;52.122;9.952;2023-06-19T04:45:41;100006.88;;;20.23;62.51
13705;BME280;6924;52.122;9.952;2023-06-19T04:48:09;100011.41;;;20.28;62.98
13705;BME280;6924;52.122;9.952;2023-06-19T04:50:36;100010.66;;;20.31;63.77
13705;BME280;6924;52.122;9.952;2023-06-19T04:53:03;100012.72;;;20.34;64.54
13705;BME280;6924;52.122;9.952;2023-06-19T04:55:29;100018.50;;;20.37;65.08
13705;BME280;6924;52.122;9.952;2023-06-19T04:57:56;100012.34;;;20.39;65.60
13705;BME280;6924;52.122;9.952;2023-06-19T05:00:22;100007.47;;;20.39;66.19
13705;BME280;6924;52.122;9.952;2023-06-19T05:02:49;100013.59;;;20.41;65.78
13705;BME280;6924;52.122;9.952;2023-06-19T05:05:17;100010.72;;;20.41;65.30
13705;BME280;6924;52.122;9.952;2023-06-19T05:07:44;100017.31;;;20.42;64.38
13705;BME280;6924;52.122;9.952;2023-06-19T05:10:11;100018.13;;;20.42;64.70
13705;BME280;6924;52.122;9.952;2023-06-19T05:12:38;100018.13;;;20.42;64.77
13705;BME280;6924;52.122;9.952;2023-06-19T05:15:05;100015.28;;;20.42;64.17
13705;BME280;6924;52.122;9.952;2023-06-19T05:17:31;100014.44;;;20.42;64.04
13705;BME280;6924;52.122;9.952;2023-06-19T05:19:58;100017.31;;;20.42;67.93
13705;BME280;6924;52.122;9.952;2023-06-19T05:22:26;100020.59;;;20.40;70.42
13705;BME280;6924;52.122;9.952;2023-06-19T05:24:53;100023.06;;;20.42;70.97
13705;BME280;6924;52.122;9.952;2023-06-19T05:27:19;100031.69;;;20.42;70.32
13705;BME280;6924;52.122;9.952;2023-06-19T05:29:45;100032.06;;;20.40;69.75
13705;BME280;6924;52.122;9.952;2023-06-19T05:32:12;100027.13;;;20.37;68.02
13705;BME280;6924;52.122;9.952;2023-06-19T05:34:39;100029.56;;;20.35;67.96
13705;BME280;6924;52.122;9.952;2023-06-19T05:37:05;100040.25;;;20.38;69.44
13705;BME280;6924;52.122;9.952;2023-06-19T05:39:33;100044.00;;;20.42;69.54
13705;BME280;6924;52.122;9.952;2023-06-19T05:42:00;100046.91;;;20.46;68.51
13705;BME280;6924;52.122;9.952;2023-06-19T05:44:27;100047.72;;;20.47;68.52
13705;BME280;6924;52.122;9.952;2023-06-19T05:46:53;100048.97;;;20.49;69.78
13705;BME280;6924;52.122;9.952;2023-06-19T05:49:20;100043.66;;;20.51;70.39
13705;BME280;6924;52.122;9.952;2023-06-19T05:51:46;100047.78;;;20.54;70.66
13705;BME280;6924;52.122;9.952;2023-06-19T05:54:13;100053.16;;;20.55;68.53
13705;BME280;6924;52.122;9.952;2023-06-19T05:56:40;100054.78;;;20.56;69.53
13705;BME280;6924;52.122;9.952;2023-06-19T05:59:07;100066.75;;;20.58;68.48
13705;BME280;6924;52.122;9.952;2023-06-19T06:01:33;100057.75;;;20.60;71.43
13705;BME280;6924;52.122;9.952;2023-06-19T06:04:00;100063.50;;;20.63;70.81
13705;BME280;6924;52.122;9.952;2023-06-19T06:06:27;100056.56;;;20.64;69.35
13705;BME280;6924;52.122;9.952;2023-06-19T06:08:53;100054.94;;;20.67;69.67
13705;BME280;6924;52.122;9.952;2023-06-19T06:11:20;100057.41;;;20.69;69.00
13705;BME280;6924;52.122;9.952;2023-06-19T06:13:47;100065.63;;;20.70;69.81
13705;BME280;6924;52.122;9.952;2023-06-19T06:16:14;100061.44;;;20.60;69.25
13705;BME280;6924;52.122;9.952;2023-06-19T06:18:40;100067.19;;;20.60;69.62
13705;BME280;6924;52.122;9.952;2023-06-19T06:21:07;100061.88;;;20.62;69.25
13705;BME280;6924;52.122;9.952;2023-06-19T06:23:33;100071.34;;;20.67;69.53
13705;BME280;6924;52.122;9.952;2023-06-19T06:26:00;100068.47;;;20.67;69.26
13705;BME280;6924;52.122;9.952;2023-06-19T06:28:27;100067.28;;;20.71;69.55
13705;BME280;6924;52.122;9.952;2023-06-19T06:30:55;100081.25;;;20.73;70.10
13705;BME280;6924;52.122;9.952;2023-06-19T06:33:22;100081.69;;;20.75;73.03
13705;BME280;6924;52.122;9.952;2023-06-19T06:35:48;100089.50;;;20.78;74.71
13705;BME280;6924;52.122;9.952;2023-06-19T06:38:15;100090.34;;;20.78;76.57
13705;BME280;6924;52.122;9.952;2023-06-19T06:40:41;100085.03;;;20.80;75.78
13705;BME280;6924;52.122;9.952;2023-06-19T06:43:08;100098.19;;;20.81;75.03
13705;BME280;6924;52.122;9.952;2023-06-19T06:45:35;100091.59;;;20.81;74.68
13705;BME280;6924;52.122;9.952;2023-06-19T06:48:04;100088.72;;;20.81;75.22
13705;BME280;6924;52.122;9.952;2023-06-19T06:50:32;100087.50;;;20.82;74.48
13705;BME280;6924;52.122;9.952;2023-06-19T06:52:58;100087.50;;;20.82;74.46
13705;BME280;6924;52.122;9.952;2023-06-19T06:55:24;100087.94;;;20.84;73.77
13705;BME280;6924;52.122;9.952;2023-06-19T06:57:51;100092.88;;;20.83;73.91
13705;BME280;6924;52.122;9.952;2023-06-19T07:00:18;100096.16;;;20.85;74.55
13705;BME280;6924;52.122;9.952;2023-06-19T07:02:44;100103.16;;;20.88;75.09
13705;BME280;6924;52.122;9.952;2023-06-19T07:05:14;100103.59;;;20.90;76.17
13705;BME280;6924;52.122;9.952;2023-06-19T07:07:40;100110.59;;;20.93;76.26
13705;BME280;6924;52.122;9.952;2023-06-19T07:10:08;100108.97;;;20.95;76.70
13705;BME280;6924;52.122;9.952;2023-06-19T07:12:35;100112.72;;;20.99;75.39
13705;BME280;6924;52.122;9.952;2023-06-19T07:15:01;100119.31;;;21.03;74.20
13705;BME280;6924;52.122;9.952;2023-06-19T07:17:28;100118.47;;;21.03;73.73
13705;BME280;6924;52.122;9.952;2023-06-19T07:19:54;100120.56;;;21.06;73.13
13705;BME280;6924;52.122;9.952;2023-06-19T07:22:22;100118.94;;;21.09;72.96
13705;BME280;6924;52.122;9.952;2023-06-19T07:24:48;100126.44;;;21.17;73.46
13705;BME280;6924;52.122;9.952;2023-06-19T07:27:15;100124.38;;;21.21;71.91
13705;BME280;6924;52.122;9.952;2023-06-19T07:29:43;100127.69;;;21.23;71.38
13705;BME280;6924;52.122;9.952;2023-06-19T07:32:10;100126.91;;;21.30;74.31
13705;BME280;6924;52.122;9.952;2023-06-19T07:34:36;100131.13;;;21.39;73.54
13705;BME280;6924;52.122;9.952;2023-06-19T07:37:03;100124.59;;;21.42;72.08
13705;BME280;6924;52.122;9.952;2023-06-19T07:39:31;100123.84;;;21.53;71.58
13705;BME280;6924;52.122;9.952;2023-06-19T07:41:57;100121.00;;;21.60;71.15
13705;BME280;6924;52.122;9.952;2023-06-19T07:44:24;100118.59;;;21.69;74.15
13705;BME280;6924;52.122;9.952;2023-06-19T07:46:50;100118.66;;;21.80;73.38
13705;BME280;6924;52.122;9.952;2023-06-19T07:49:16;100120.78;;;21.90;71.39
13705;BME280;6924;52.122;9.952;2023-06-19T07:51:43;100122.88;;;21.97;72.61
13705;BME280;6924;52.122;9.952;2023-06-19T07:54:09;100123.72;;;22.04;69.96
13705;BME280;6924;52.122;9.952;2023-06-19T07:56:37;100118.00;;;22.12;68.92
13705;BME280;6924;52.122;9.952;2023-06-19T07:59:04;100118.91;;;22.23;67.23
13705;BME280;6924;52.122;9.952;2023-06-19T08:01:31;100117.69;;;22.31;68.72
13705;BME280;6924;52.122;9.952;2023-06-19T08:03:57;100125.16;;;22.46;67.53
13705;BME280;6924;52.122;9.952;2023-06-19T08:06:23;100118.19;;;22.55;63.36
13705;BME280;6924;52.122;9.952;2023-06-19T08:08:50;100115.34;;;22.69;63.89
13705;BME280;6924;52.122;9.952;2023-06-19T08:11:17;100120.69;;;22.81;62.58
13705;BME280;6924;52.122;9.952;2023-06-19T08:13:44;100114.97;;;22.92;62.74
13705;BME280;6924;52.122;9.952;2023-06-19T08:16:11;100119.94;;;23.02;63.41
13705;BME280;6924;52.122;9.952;2023-06-19T08:18:37;100116.25;;;23.09;62.83
13705;BME280;6924;52.122;9.952;2023-06-19T08:21:04;100116.25;;;23.27;61.95
13705;BME280;6924;52.122;9.952;2023-06-19T08:23:30;100120.34;;;23.40;61.79
13705;BME280;6924;52.122;9.952;2023-06-19T08:25:56;100110.44;;;23.45;61.74
13705;BME280;6924;52.122;9.952;2023-06-19T08:28:23;100105.47;;;23.60;58.19
13705;BME280;6924;52.122;9.952;2023-06-19T08:30:51;100100.91;;;23.73;58.85
13705;BME280;6924;52.122;9.952;2023-06-19T08:33:17;100111.22;;;23.88;58.98
13705;BME280;6924;52.122;9.952;2023-06-19T08:35:44;100116.13;;;24.02;56.96
13705;BME280;6924;52.122;9.952;2023-06-19T08:38:11;100107.84;;;24.08;58.04
13705;BME280;6924;52.122;9.952;2023-06-19T08:40:38;100102.41;;;24.21;57.42
13705;BME280;6924;52.122;9.952;2023-06-19T08:43:04;100101.56;;;24.31;57.10
13705;BME280;6924;52.122;9.952;2023-06-19T08:45:31;100102.41;;;24.24;60.05
13705;BME280;6924;52.122;9.952;2023-06-19T08:47:59;100096.13;;;24.44;57.17
13705;BME280;6924;52.122;9.952;2023-06-19T08:50:27;100107.22;;;24.56;57.08
13705;BME280;6924;52.122;9.952;2023-06-19T08:52:54;100110.03;;;24.74;58.00
13705;BME280;6924;52.122;9.952;2023-06-19T08:55:21;100118.19;;;24.86;57.29
13705;BME280;6924;52.122;9.952;2023-06-19T08:57:48;100115.28;;;24.90;58.36
13705;BME280;6924;52.122;9.952;2023-06-19T09:00:22;100115.59;;;25.03;58.89
13705;BME280;6924;52.122;9.952;2023-06-19T09:02:50;100115.06;;;25.19;57.79
13705;BME280;6924;52.122;9.952;2023-06-19T09:05:19;100114.94;;;25.36;56.70
13705;BME280;6924;52.122;9.952;2023-06-19T09:07:56;100113.16;;;25.46;56.11
13705;BME280;6924;52.122;9.952;2023-06-19T09:10:23;100114.34;;;25.52;56.08
13705;BME280;6924;52.122;9.952;2023-06-19T09:12:57;100110.56;;;25.59;56.13
13705;BME280;6924;52.122;9.952;2023-06-19T09:15:27;100108.06;;;25.61;56.38
13705;BME280;6924;52.122;9.952;2023-06-19T09:18:03;100112.94;;;25.71;56.06
13705;BME280;6924;52.122;9.952;2023-06-19T09:20:32;100114.84;;;25.85;54.39
13705;BME280;6924;52.122;9.952;2023-06-19T09:22:59;100115.16;;;25.98;55.96
13705;BME280;6924;52.122;9.952;2023-06-19T09:25:25;100112.53;;;26.11;55.57
13705;BME280;6924;52.122;9.952;2023-06-19T09:27:52;100103.72;;;26.18;54.42
13705;BME280;6924;52.122;9.952;2023-06-19T09:30:19;100106.34;;;26.09;55.14
13705;BME280;6924;52.122;9.952;2023-06-19T09:32:46;100107.97;;;26.10;54.89
13705;BME280;6924;52.122;9.952;2023-06-19T09:35:12;100103.19;;;26.30;52.25
13705;BME280;6924;52.122;9.952;2023-06-19T09:37:40;100103.88;;;26.38;53.31
13705;BME280;6924;52.122;9.952;2023-06-19T09:40:07;100110.28;;;26.56;53.17
13705;BME280;6924;52.122;9.952;2023-06-19T09:42:37;100109.34;;;26.63;55.01
13705;BME280;6924;52.122;9.952;2023-06-19T09:45:06;100111.72;;;26.72;54.10
13705;BME280;6924;52.122;9.952;2023-06-19T09:47:36;100113.41;;;26.69;53.57
13705;BME280;6924;52.122;9.952;2023-06-19T09:50:03;100115.84;;;26.74;55.52
13705;BME280;6924;52.122;9.952;2023-06-19T09:52:31;100109.16;;;26.77;55.98
13705;BME280;6924;52.122;9.952;2023-06-19T09:55:02;100122.47;;;26.75;56.01
13705;BME280;6924;52.122;9.952;2023-06-19T09:57:29;100126.44;;;26.85;55.64
13705;BME280;6924;52.122;9.952;2023-06-19T09:59:58;100124.09;;;26.76;53.55
13705;BME280;6924;52.122;9.952;2023-06-19T10:02:30;100126.13;;;26.79;52.17
13705;BME280;6924;52.122;9.952;2023-06-19T10:04:57;100133.25;;;26.74;53.08
13705;BME280;6924;52.122;9.952;2023-06-19T10:07:26;100128.97;;;26.83;52.68
13705;BME280;6924;52.122;9.952;2023-06-19T10:10:01;100130.91;;;26.93;53.73
13705;BME280;6924;52.122;9.952;2023-06-19T10:12:37;100132.44;;;27.01;53.75
13705;BME280;6924;52.122;9.952;2023-06-19T10:15:15;100131.31;;;26.91;52.92
13705;BME280;6924;52.122;9.952;2023-06-19T10:17:44;100134.56;;;26.97;53.88
13705;BME280;6924;52.122;9.952;2023-06-19T10:20:22;100142.06;;;26.94;54.43
13705;BME280;6924;52.122;9.952;2023-06-19T10:22:56;100141.53;;;27.03;55.88
13705;BME280;6924;52.122;9.952;2023-06-19T10:25:28;100144.31;;;27.10;55.65
13705;BME280;6924;52.122;9.952;2023-06-19T10:27:55;100135.91;;;27.16;55.32
13705;BME280;6924;52.122;9.952;2023-06-19T10:30:22;100125.81;;;27.28;53.66
13705;BME280;6924;52.122;9.952;2023-06-19T10:32:48;100130.59;;;27.38;51.53
13705;BME280;6924;52.122;9.952;2023-06-19T10:35:16;100130.59;;;27.38;53.24
13705;BME280;6924;52.122;9.952;2023-06-19T10:37:46;100133.44;;;27.41;50.72
13705;BME280;6924;52.122;9.952;2023-06-19T10:40:13;100137.53;;;27.44;50.83
13705;BME280;6924;52.122;9.952;2023-06-19T10:42:41;100140.88;;;27.66;53.49
13705;BME280;6924;52.122;9.952;2023-06-19T10:45:09;100140.44;;;27.68;53.33
13705;BME280;6924;52.122;9.952;2023-06-19T10:47:38;100137.47;;;27.71;51.29
13705;BME280;6924;52.122;9.952;2023-06-19T10:50:09;100132.03;;;27.73;52.14
13705;BME280;6924;52.122;9.952;2023-06-19T10:52:35;100136.16;;;27.76;51.32
13705;BME280;6924;52.122;9.952;2023-06-19T10:55:03;100137.34;;;27.78;52.85
13705;BME280;6924;52.122;9.952;2023-06-19T10:57:30;100139.78;;;27.80;52.18
13705;BME280;6924;52.122;9.952;2023-06-19T10:59:58;100126.88;;;27.85;52.12
13705;BME280;6924;52.122;9.952;2023-06-19T11:02:25;100130.53;;;27.89;51.07
13705;BME280;6924;52.122;9.952;2023-06-19T11:04:52;100131.75;;;27.91;52.81
13705;BME280;6924;52.122;9.952;2023-06-19T11:07:19;100129.41;;;27.82;53.93
13705;BME280;6924;52.122;9.952;2023-06-19T11:09:46;100137.69;;;28.04;53.35
13705;BME280;6924;52.122;9.952;2023-06-19T11:12:18;100123.25;;;28.00;51.48
13705;BME280;6924;52.122;9.952;2023-06-19T11:14:45;100127.56;;;28.12;52.10
13705;BME280;6924;52.122;9.952;2023-06-19T11:17:13;100127.81;;;28.21;50.82
13705;BME280;6924;52.122;9.952;2023-06-19T11:19:39;100132.59;;;28.32;51.53
13705;BME280;6924;52.122;9.952;2023-06-19T11:22:07;100121.53;;;28.23;46.76
13705;BME280;6924;52.122;9.952;2023-06-19T11:24:34;100132.47;;;28.35;49.38
13705;BME280;6924;52.122;9.952;2023-06-19T11:27:00;100127.28;;;28.47;49.49
13705;BME280;6924;52.122;9.952;2023-06-19T11:29:30;100122.69;;;28.49;48.92
13705;BME280;6924;52.122;9.952;2023-06-19T11:32:05;100130.19;;;28.47;49.84
13705;BME280;6924;52.122;9.952;2023-06-19T11:34:34;100134.34;;;28.46;49.96
13705;BME280;6924;52.122;9.952;2023-06-19T11:37:02;100142.22;;;28.49;51.27
13705;BME280;6924;52.122;9.952;2023-06-19T11:39:31;100141.69;;;28.34;50.04
13705;BME280;6924;52.122;9.952;2023-06-19T11:41:58;100146.91;;;28.42;48.88
13705;BME280;6924;52.122;9.952;2023-06-19T11:44:25;100147.72;;;28.23;48.98
13705;BME280;6924;52.122;9.952;2023-06-19T11:46:56;100146.50;;;28.00;49.45
13705;BME280;6924;52.122;9.952;2023-06-19T11:49:23;100147.91;;;27.92;52.50
13705;BME280;6924;52.122;9.952;2023-06-19T11:51:51;100149.31;;;28.04;51.03
13705;BME280;6924;52.122;9.952;2023-06-19T11:54:18;100145.16;;;28.05;51.22
13705;BME280;6924;52.122;9.952;2023-06-19T11:56:46;100154.03;;;27.74;50.91
13705;BME280;6924;52.122;9.952;2023-06-19T11:59:13;100149.56;;;27.70;50.20
13705;BME280;6924;52.122;9.952;2023-06-19T12:01:40;100149.28;;;27.84;50.84
13705;BME280;6924;52.122;9.952;2023-06-19T12:04:06;100143.66;;;27.97;52.29
13705;BME280;6924;52.122;9.952;2023-06-19T12:06:33;100144.59;;;28.14;49.06
13705;BME280;6924;52.122;9.952;2023-06-19T12:09:03;100149.69;;;27.86;48.79
13705;BME280;6924;52.122;9.952;2023-06-19T12:11:30;100135.25;;;27.79;51.34
13705;BME280;6924;52.122;9.952;2023-06-19T12:13:57;100144.31;;;27.85;49.67
13705;BME280;6924;52.122;9.952;2023-06-19T12:16:23;100141.44;;;28.05;49.80
13705;BME280;6924;52.122;9.952;2023-06-19T12:18:50;100143.69;;;28.17;49.24
13705;BME280;6924;52.122;9.952;2023-06-19T12:21:16;100136.91;;;28.23;50.24
13705;BME280;6924;52.122;9.952;2023-06-19T12:23:43;100132.84;;;27.97;48.01
13705;BME280;6924;52.122;9.952;2023-06-19T12:26:11;100141.78;;;28.07;49.94
13705;BME280;6924;52.122;9.952;2023-06-19T12:28:37;100143.22;;;27.98;49.10
13705;BME280;6924;52.122;9.952;2023-06-19T12:31:03;100141.72;;;27.90;48.93
13705;BME280;6924;52.122;9.952;2023-06-19T12:33:30;100137.34;;;27.78;48.41
13705;BME280;6924;52.122;9.952;2023-06-19T12:35:58;100140.59;;;28.04;51.24
13705;BME280;6924;52.122;9.952;2023-06-19T12:38:25;100129.22;;;28.13;47.86
13705;BME280;6924;52.122;9.952;2023-06-19T12:40:51;100140.63;;;28.24;50.47
13705;BME280;6924;52.122;9.952;2023-06-19T12:43:19;100149.72;;;28.26;49.66
13705;BME280;6924;52.122;9.952;2023-06-19T12:45:46;100139.41;;;28.41;48.70
13705;BME280;6924;52.122;9.952;2023-06-19T12:48:12;100141.69;;;28.54;48.06
13705;BME280;6924;52.122;9.952;2023-06-19T12:50:39;100140.88;;;28.53;47.57
13705;BME280;6924;52.122;9.952;2023-06-19T12:53:05;100146.69;;;28.53;46.38
13705;BME280;6924;52.122;9.952;2023-06-19T12:55:32;100142.56;;;28.51;48.88
13705;BME280;6924;52.122;9.952;2023-06-19T12:57:58;100143.63;;;28.60;47.47
13705;BME280;6924;52.122;9.952;2023-06-19T13:00:26;100149.06;;;28.58;45.91
13705;BME280;6924;52.122;9.952;2023-06-19T13:02:52;100141.47;;;28.64;46.40
13705;BME280;6924;52.122;9.952;2023-06-19T13:05:19;100146.75;;;28.30;47.04